Aomori Airport
RJSA : now visible

Airfield :











YOU CAN JOIN US ON...

 
LOGIN :

Register | Disclaimer

   EN    FR    IT 

 









Legend :    VFR   Marginal VFR   IFR   Intensive IFR   Very Intensive IFR
Visi :
Ceiling :
>= 8 km
>= 3000ft
5 to 8 km
1000 to 3000 ft
1500m to 5 km
500 to 1000 ft
800 to 1500m
200 to 500 ft
< 800m
< 200 ft
Symbols :   Thunderstorms  Fog  Heavy snow  Heavy precipitations  Wind > 20 kt







- Airport Elevation : 664 ft
- IATA code : AOJ


RJSA - Aomori

CURRENT METAR :
  • 180600Z 04007KT 9999 FEW030 SCT050 27/21 Q1008

EXPIRED METARs :
  • 180500Z 04006KT 360V070 9999 FEW040 BKN/// 28/21 Q1008
  • 180400Z 02007KT 9999 FEW030 SCT040 BKN/// 29/21 Q1008

TAF TAF RJSA
Valid from the 18 at 06:00 until the 19 at 12:00 UTC


180505Z 1806/1912 03005KT 9999 FEW030
BECMG 1814/1816 25004KT
BECMG 1821/1900 03007KT
No reported NOTAMs for that airfield.



MET'MAP, your aeronautical weather chart ! - Copyright ORBIFLY December 2007 - Disclaimer

ORBIFLY MET'MAP TEAM :

Programming & Development : Alexandra Zaïnal
Concept & Development : Baudouin d'Aumeries
Co-Development & Prog : Marc-Olivier Méhu
Technical & hardware support : Manuel Goepfert

Contact : metmap@orbifly.com




SOURCES & CREDITS :

   NOAA       Earth
Advisory